KCAE

Columbia Metropolitan Airport

Columbia, South Carolina, USA
METAR KCAE 150056Z 25003KT 10SM SCT065 27/23 A2999 RMK AO2 SLP151 T02720228
Observed Flight Rules
Aug-15 @ 00:56 UTC (7 minutes ago) Visual Flight Rules
Wind Visibility Clouds
250° at 3 knots 10 miles
  • Scattered at 6,500' AGL
Temperatures Readings
Current 27°C / 81°F
Dewpoint 23°C / 73°F
Humidity 79%
Altimeter 29.99" Hg
Pressure 1015.1 hPa
Elevation 70
METAR KCAE 150056Z 25003KT 10SM SCT065 27/23 A2999 RMK AO2 SLP151 T02720228
Observed Flight Rules
Aug-15 @ 00:56 UTC
(7 minutes ago)
VFR
Wind Visibility
250° at 3 knots 10 miles
Clouds
  • Scattered at 6,500' AGL
Temperature Dewpoint
27°C / 81°F 23°C / 73°F
Humidity Altimeter Pressure
79% 29.99" Hg 1015.1 hPa